SAS986 KLAX-ESSA
Flight info
| Callsign | SAS986 |
|---|---|
| Flight time | N/A |
| Altitude | 37000 |
| Route | OSHNN1 BEALE Q842 WINEN DCT EHK DCT 42N108W 4630N10200W 48N100W DCT DEBMA DCT KAVKI DCT 53N090W 56N080W 59N070W/M085F370 61N060W DCT MAXAR DCT 63N050W 64N040W 64N030W 64N020W 64N010W DCT ISVIG/N0484F370 DCT XAMUS DCT TUTOP DCT KOSOB DCT UFGUG DCT BELGU DCT NUVSA DCT AGWIM DCT ARGIB Z183 ELTOK |
| Aircraft | A359/H-SDE2E3GHIJ3J4J5LM1ORWXY/LB1D1 |
Departure
| Time | 2026-04-25 09:58 |
|---|---|
| Airport | Los Angeles International Airport (KLAX) |
Arrival
| Time | N/A |
|---|---|
| Airport | Stockholm-Arlanda Airport (ESSA) |
| Time | Latitude | Longitude | Altitude | Speed | Heading |
|---|---|---|---|---|---|
| 2026-04-25 09:36 | 33.94482 | -118.43443 | 132 ft | 0 kts | 264° |
| 2026-04-25 09:47 | 33.94514 | -118.43531 | 128 ft | 15 kts | 314° |
| 2026-04-25 09:47 | 33.94555 | -118.43536 | 129 ft | 2 kts | 42° |
| 2026-04-25 09:48 | 33.94556 | -118.43532 | 130 ft | 0 kts | 57° |
| 2026-04-25 09:49 | 33.94574 | -118.43405 | 124 ft | 28 kts | 83° |
| 2026-04-25 09:49 | 33.94593 | -118.43173 | 129 ft | 28 kts | 85° |
| 2026-04-25 09:49 | 33.94610 | -118.42942 | 129 ft | 28 kts | 85° |
| 2026-04-25 09:50 | 33.94632 | -118.42713 | 127 ft | 27 kts | 81° |
| 2026-04-25 09:50 | 33.94658 | -118.42486 | 128 ft | 27 kts | 83° |
| 2026-04-25 09:50 | 33.94680 | -118.42259 | 132 ft | 27 kts | 83° |
| 2026-04-25 09:50 | 33.94701 | -118.42032 | 124 ft | 27 kts | 83° |
| 2026-04-25 09:51 | 33.94723 | -118.41805 | 130 ft | 27 kts | 83° |
| 2026-04-25 09:51 | 33.94744 | -118.41581 | 132 ft | 27 kts | 83° |
| 2026-04-25 09:51 | 33.94771 | -118.41358 | 127 ft | 27 kts | 77° |
| 2026-04-25 09:51 | 33.94809 | -118.41140 | 128 ft | 26 kts | 78° |
| 2026-04-25 09:52 | 33.94841 | -118.40923 | 132 ft | 26 kts | 83° |
| 2026-04-25 09:52 | 33.94856 | -118.40708 | 132 ft | 26 kts | 84° |
| 2026-04-25 09:52 | 33.94872 | -118.40494 | 127 ft | 26 kts | 84° |
| 2026-04-25 09:52 | 33.94894 | -118.40282 | 132 ft | 25 kts | 82° |
| 2026-04-25 09:53 | 33.94916 | -118.40072 | 124 ft | 25 kts | 82° |
| 2026-04-25 09:53 | 33.94979 | -118.39924 | 127 ft | 13 kts | 25° |
| 2026-04-25 09:53 | 33.95020 | -118.39940 | 128 ft | 5 kts | 308° |
| 2026-04-25 09:53 | 33.95032 | -118.39995 | 130 ft | 13 kts | 274° |
| 2026-04-25 09:54 | 33.95031 | -118.40004 | 129 ft | 0 kts | 267° |
| 2026-04-25 09:57 | 33.95030 | -118.40021 | 132 ft | 15 kts | 267° |
| 2026-04-25 09:57 | 33.94991 | -118.40491 | 132 ft | 98 kts | 263° |
| 2026-04-25 09:57 | 33.94861 | -118.41606 | 129 ft | 164 kts | 261° |
| 2026-04-25 09:57 | 33.94688 | -118.43037 | 590 ft | 167 kts | 261° |
| 2026-04-25 09:58 | 33.94547 | -118.44404 | 1487 ft | 169 kts | 262° |
| 2026-04-25 09:58 | 33.94404 | -118.45956 | 1938 ft | 205 kts | 262° |
| 2026-04-25 09:58 | 33.94259 | -118.47760 | 2637 ft | 226 kts | 265° |
| 2026-04-25 09:58 | 33.94197 | -118.49691 | 3617 ft | 236 kts | 267° |
| 2026-04-25 09:59 | 33.94143 | -118.51720 | 4592 ft | 245 kts | 267° |
| 2026-04-25 09:59 | 33.94015 | -118.53715 | 6009 ft | 232 kts | 265° |
| 2026-04-25 09:59 | 33.93863 | -118.55629 | 7192 ft | 229 kts | 265° |
| 2026-04-25 09:59 | 33.93710 | -118.57540 | 8179 ft | 231 kts | 264° |
| 2026-04-25 10:00 | 33.93541 | -118.59470 | 9152 ft | 232 kts | 261° |
| 2026-04-25 10:00 | 33.93084 | -118.61390 | 9793 ft | 250 kts | 244° |
| 2026-04-25 10:00 | 33.91966 | -118.63073 | 10253 ft | 266 kts | 221° |
| 2026-04-25 10:00 | 33.85709 | -118.63706 | 11711 ft | 297 kts | 173° |
| 2026-04-25 10:01 | 33.82858 | -118.62657 | 12735 ft | 299 kts | 165° |
| 2026-04-25 10:01 | 33.75947 | -118.57654 | 16360 ft | 284 kts | 151° |
| 2026-04-25 10:01 | 33.70297 | -118.51212 | 18878 ft | 288 kts | 133° |
| 2026-04-25 10:01 | 33.68856 | -118.48472 | 19507 ft | 293 kts | 125° |
| 2026-04-25 10:02 | 33.67973 | -118.46249 | 19985 ft | 296 kts | 118° |
| 2026-04-25 10:02 | 33.67248 | -118.43938 | 20463 ft | 296 kts | 115° |
| 2026-04-25 10:02 | 33.66281 | -118.40589 | 21025 ft | 300 kts | 115° |
| 2026-04-25 10:02 | 33.65587 | -118.38199 | 21347 ft | 304 kts | 115° |
| 2026-04-25 10:03 | 33.64902 | -118.35779 | 21666 ft | 309 kts | 112° |
| 2026-04-25 10:03 | 33.64478 | -118.33212 | 22005 ft | 317 kts | 98° |
| 2026-04-25 10:03 | 33.64403 | -118.30547 | 22339 ft | 322 kts | 93° |
| 2026-04-25 10:03 | 33.64415 | -118.27847 | 22680 ft | 325 kts | 92° |
| 2026-04-25 10:04 | 33.64466 | -118.25131 | 23020 ft | 328 kts | 89° |
| 2026-04-25 10:04 | 33.64771 | -118.22407 | 23364 ft | 331 kts | 79° |
| 2026-04-25 10:04 | 33.65457 | -118.19769 | 23672 ft | 332 kts | 67° |
| 2026-04-25 10:04 | 33.66504 | -118.17351 | 23959 ft | 331 kts | 56° |
| 2026-04-25 10:05 | 33.67907 | -118.15159 | 24216 ft | 330 kts | 44° |
| 2026-04-25 10:05 | 33.69593 | -118.13298 | 24434 ft | 329 kts | 34° |
| 2026-04-25 10:05 | 33.71415 | -118.11640 | 24685 ft | 329 kts | 31° |
| 2026-04-25 10:05 | 33.73271 | -118.10012 | 24926 ft | 330 kts | 31° |
| 2026-04-25 10:06 | 33.75129 | -118.08378 | 25158 ft | 332 kts | 31° |
| 2026-04-25 10:06 | 33.77000 | -118.06721 | 25377 ft | 335 kts | 32° |
| 2026-04-25 10:06 | 33.78878 | -118.05047 | 25599 ft | 336 kts | 32° |
| 2026-04-25 10:06 | 33.80737 | -118.03383 | 25820 ft | 338 kts | 32° |
| 2026-04-25 10:07 | 33.82625 | -118.01689 | 26042 ft | 340 kts | 32° |
| 2026-04-25 10:07 | 33.84527 | -117.99982 | 26273 ft | 342 kts | 32° |
| 2026-04-25 10:07 | 33.86437 | -117.98264 | 26478 ft | 343 kts | 31° |
| 2026-04-25 10:07 | 33.88358 | -117.96535 | 26690 ft | 345 kts | 31° |
| 2026-04-25 10:08 | 33.90284 | -117.94801 | 26900 ft | 347 kts | 31° |
| 2026-04-25 10:08 | 33.92225 | -117.93052 | 27107 ft | 349 kts | 32° |
| 2026-04-25 10:08 | 33.94163 | -117.91281 | 27308 ft | 351 kts | 32° |
| 2026-04-25 10:08 | 33.96110 | -117.89499 | 27518 ft | 352 kts | 31° |
| 2026-04-25 10:09 | 33.98065 | -117.87712 | 27714 ft | 354 kts | 32° |
| 2026-04-25 10:09 | 34.00030 | -117.85909 | 27905 ft | 356 kts | 32° |
| 2026-04-25 10:09 | 34.02007 | -117.84095 | 28107 ft | 357 kts | 32° |
| 2026-04-25 10:09 | 34.03993 | -117.82274 | 28301 ft | 359 kts | 32° |
| 2026-04-25 10:10 | 34.05963 | -117.80468 | 28497 ft | 361 kts | 32° |
| 2026-04-25 10:10 | 34.07947 | -117.78607 | 28688 ft | 364 kts | 34° |
| 2026-04-25 10:10 | 34.09790 | -117.76474 | 28844 ft | 370 kts | 44° |
| 2026-04-25 10:10 | 34.11462 | -117.74095 | 29041 ft | 373 kts | 47° |
| 2026-04-25 10:11 | 34.13097 | -117.71659 | 29244 ft | 374 kts | 47° |
| 2026-04-25 10:11 | 34.13714 | -117.70734 | 29288 ft | 373 kts | 47° |
| 2026-04-25 10:11 | 34.17016 | -117.65882 | 29312 ft | 376 kts | 46° |
| 2026-04-25 10:12 | 34.20346 | -117.60973 | 29389 ft | 380 kts | 46° |
| 2026-04-25 10:13 | 34.25425 | -117.53433 | 29379 ft | 389 kts | 46° |
| 2026-04-25 10:13 | 34.28869 | -117.48303 | 29356 ft | 396 kts | 47° |
| 2026-04-25 10:14 | 34.32351 | -117.43115 | 29348 ft | 404 kts | 47° |
| 2026-04-25 10:14 | 34.35925 | -117.37772 | 29346 ft | 413 kts | 47° |
| 2026-04-25 10:15 | 34.39574 | -117.32309 | 29344 ft | 421 kts | 47° |
| 2026-04-25 10:15 | 34.43300 | -117.26724 | 29347 ft | 430 kts | 47° |
| 2026-04-25 10:16 | 34.47099 | -117.21020 | 29337 ft | 440 kts | 47° |
| 2026-04-25 10:16 | 34.50975 | -117.15190 | 29436 ft | 446 kts | 47° |
| 2026-04-25 10:16 | 34.52921 | -117.12258 | 29568 ft | 447 kts | 47° |
| 2026-04-25 10:17 | 34.54874 | -117.09316 | 29706 ft | 448 kts | 47° |
| 2026-04-25 10:17 | 34.56860 | -117.06404 | 29835 ft | 449 kts | 46° |
| 2026-04-25 10:17 | 34.58869 | -117.03495 | 29950 ft | 450 kts | 46° |
| 2026-04-25 10:18 | 34.62865 | -116.97695 | 30161 ft | 451 kts | 46° |
| 2026-04-25 10:18 | 34.64874 | -116.94769 | 30284 ft | 452 kts | 46° |
| 2026-04-25 10:18 | 34.66885 | -116.91833 | 30392 ft | 453 kts | 46° |
| 2026-04-25 10:18 | 34.68898 | -116.88892 | 30516 ft | 453 kts | 46° |
| 2026-04-25 10:19 | 34.70917 | -116.85938 | 30639 ft | 454 kts | 46° |
| 2026-04-25 10:19 | 34.72933 | -116.82985 | 30768 ft | 454 kts | 46° |
| 2026-04-25 10:19 | 34.74952 | -116.80025 | 30897 ft | 455 kts | 45° |
| 2026-04-25 10:19 | 34.76970 | -116.77064 | 31040 ft | 454 kts | 45° |
| 2026-04-25 10:20 | 34.78983 | -116.74107 | 31207 ft | 453 kts | 45° |
| 2026-04-25 10:20 | 34.80994 | -116.71150 | 31350 ft | 452 kts | 45° |
| 2026-04-25 10:20 | 34.83003 | -116.68196 | 31508 ft | 451 kts | 45° |
| 2026-04-25 10:20 | 34.84980 | -116.65286 | 31661 ft | 450 kts | 45° |
| 2026-04-25 10:21 | 34.86995 | -116.62388 | 31809 ft | 448 kts | 42° |
| 2026-04-25 10:21 | 34.89096 | -116.59593 | 31957 ft | 446 kts | 41° |
| 2026-04-25 10:21 | 34.91200 | -116.56827 | 32113 ft | 444 kts | 41° |
| 2026-04-25 10:21 | 34.93291 | -116.54064 | 32256 ft | 443 kts | 41° |
| 2026-04-25 10:22 | 34.95374 | -116.51296 | 32408 ft | 442 kts | 41° |
| 2026-04-25 10:22 | 34.99500 | -116.45783 | 32721 ft | 438 kts | 41° |
| 2026-04-25 10:22 | 35.01544 | -116.43042 | 32882 ft | 436 kts | 41° |
| 2026-04-25 10:23 | 35.03583 | -116.40305 | 33036 ft | 434 kts | 41° |
| 2026-04-25 10:23 | 35.07641 | -116.34854 | 33213 ft | 433 kts | 41° |
| 2026-04-25 10:23 | 35.14058 | -116.26218 | 33378 ft | 433 kts | 41° |
| 2026-04-25 10:24 | 35.22042 | -116.15440 | 33548 ft | 433 kts | 41° |
| 2026-04-25 10:24 | 35.30131 | -116.04482 | 33747 ft | 434 kts | 41° |
| 2026-04-25 10:24 | 35.38222 | -115.93485 | 33949 ft | 434 kts | 41° |
| 2026-04-25 10:24 | 35.46308 | -115.82462 | 34119 ft | 435 kts | 41° |
| 2026-04-25 10:25 | 35.54412 | -115.71378 | 34242 ft | 436 kts | 41° |
| 2026-04-25 10:25 | 35.62498 | -115.60281 | 34386 ft | 437 kts | 41° |
| 2026-04-25 10:25 | 35.70615 | -115.49109 | 34516 ft | 438 kts | 41° |
| 2026-04-25 10:26 | 35.86847 | -115.26640 | 34704 ft | 440 kts | 41° |
| 2026-04-25 10:26 | 35.94965 | -115.15348 | 34817 ft | 440 kts | 41° |
| 2026-04-25 10:26 | 36.03089 | -115.04008 | 34931 ft | 440 kts | 41° |
| 2026-04-25 10:27 | 36.19754 | -114.81921 | 34919 ft | 428 kts | 24° |
| 2026-04-25 10:27 | 36.40246 | -114.68214 | 35093 ft | 420 kts | 17° |
| 2026-04-25 10:27 | 36.50574 | -114.61335 | 35200 ft | 420 kts | 17° |
| 2026-04-25 10:28 | 36.60881 | -114.54445 | 35278 ft | 420 kts | 17° |
| 2026-04-25 10:28 | 36.81215 | -114.39824 | 35440 ft | 426 kts | 22° |
| 2026-04-25 10:29 | 37.01163 | -114.24000 | 35603 ft | 424 kts | 21° |
| 2026-04-25 10:29 | 37.21091 | -114.08225 | 35736 ft | 424 kts | 22° |
| 2026-04-25 10:29 | 37.26938 | -114.04202 | 42106 ft | 418 kts | 21° |
| 2026-04-25 10:30 | 37.29449 | -114.02273 | 41691 ft | 427 kts | 25° |
| 2026-04-25 10:30 | 37.30859 | -114.01219 | 43942 ft | 416 kts | 17° |
| 2026-04-25 10:30 | 37.35815 | -113.97241 | 42928 ft | 440 kts | 29° |
| 2026-04-25 10:30 | 37.40915 | -113.92609 | 41352 ft | 474 kts | 28° |
| 2026-04-25 10:31 | 37.46487 | -113.87847 | 40737 ft | 488 kts | 26° |
| 2026-04-25 10:31 | 37.57937 | -113.78602 | 40740 ft | 490 kts | 25° |
| 2026-04-25 10:32 | 37.69481 | -113.69333 | 40745 ft | 493 kts | 26° |
| 2026-04-25 10:32 | 37.73924 | -113.65986 | 42965 ft | 486 kts | 21° |
| 2026-04-25 10:32 | 37.76913 | -113.63891 | 42659 ft | 497 kts | 25° |
| 2026-04-25 10:32 | 37.78875 | -113.62341 | 42274 ft | 507 kts | 27° |
| 2026-04-25 10:33 | 37.85967 | -113.55664 | 40919 ft | 548 kts | 40° |
| 2026-04-25 10:33 | 37.89191 | -113.50660 | 40766 ft | 558 kts | 54° |
| 2026-04-25 10:33 | 37.92142 | -113.41559 | 40770 ft | 564 kts | 78° |
| 2026-04-25 10:33 | 37.92449 | -113.33949 | 40794 ft | 561 kts | 98° |
| 2026-04-25 10:34 | 37.91694 | -113.29126 | 40811 ft | 557 kts | 110° |
| 2026-04-25 10:34 | 37.90243 | -113.24623 | 40823 ft | 550 kts | 122° |
| 2026-04-25 10:34 | 37.88185 | -113.20597 | 40844 ft | 542 kts | 133° |
| 2026-04-25 10:35 | 37.83938 | -113.12669 | 40871 ft | 550 kts | 120° |
| 2026-04-25 10:35 | 37.82518 | -113.08155 | 40879 ft | 556 kts | 108° |
| 2026-04-25 10:35 | 37.81823 | -113.03337 | 40877 ft | 559 kts | 95° |
| 2026-04-25 10:35 | 37.81934 | -112.98426 | 40868 ft | 560 kts | 81° |
| 2026-04-25 10:36 | 37.82831 | -112.93719 | 40854 ft | 557 kts | 68° |
| 2026-04-25 10:36 | 37.84468 | -112.89319 | 40835 ft | 551 kts | 54° |
| 2026-04-25 10:36 | 37.86733 | -112.85456 | 40819 ft | 543 kts | 42° |
| 2026-04-25 10:36 | 37.89491 | -112.82274 | 40798 ft | 533 kts | 30° |
| 2026-04-25 10:37 | 37.92617 | -112.79845 | 40783 ft | 522 kts | 19° |
| 2026-04-25 10:37 | 37.95976 | -112.78216 | 40765 ft | 510 kts | 7° |
| 2026-04-25 10:37 | 37.99406 | -112.77157 | 40765 ft | 507 kts | 5° |
| 2026-04-25 10:38 | 38.06236 | -112.74619 | 40769 ft | 521 kts | 18° |
| 2026-04-25 10:38 | 38.09437 | -112.72377 | 40769 ft | 531 kts | 29° |
| 2026-04-25 10:38 | 38.12407 | -112.69539 | 40757 ft | 536 kts | 33° |
| 2026-04-25 10:39 | 38.18113 | -112.63339 | 40770 ft | 541 kts | 37° |
| 2026-04-25 10:39 | 38.23714 | -112.56901 | 40775 ft | 543 kts | 37° |
| 2026-04-25 10:40 | 38.29291 | -112.50510 | 40778 ft | 543 kts | 37° |
| 2026-04-25 10:40 | 38.34942 | -112.44109 | 40780 ft | 544 kts | 36° |
| 2026-04-25 10:41 | 38.40612 | -112.37708 | 40783 ft | 544 kts | 36° |
| 2026-04-25 10:41 | 38.46272 | -112.31310 | 40779 ft | 543 kts | 37° |
| 2026-04-25 10:42 | 38.51929 | -112.24900 | 40781 ft | 544 kts | 37° |
| 2026-04-25 10:42 | 38.57583 | -112.18474 | 40779 ft | 544 kts | 37° |
| 2026-04-25 10:43 | 38.63236 | -112.12034 | 40782 ft | 544 kts | 37° |
| 2026-04-25 10:43 | 38.68884 | -112.05586 | 40776 ft | 544 kts | 37° |
| 2026-04-25 10:44 | 38.74528 | -111.99129 | 40785 ft | 544 kts | 37° |
| 2026-04-25 10:44 | 38.80170 | -111.92660 | 40785 ft | 544 kts | 37° |
| 2026-04-25 10:45 | 38.85780 | -111.86212 | 40774 ft | 544 kts | 37° |
| 2026-04-25 10:45 | 38.91417 | -111.79721 | 40769 ft | 544 kts | 37° |
| 2026-04-25 10:46 | 38.97047 | -111.73220 | 40777 ft | 543 kts | 37° |
| 2026-04-25 10:46 | 39.02666 | -111.66719 | 40774 ft | 543 kts | 37° |
| 2026-04-25 10:47 | 39.08248 | -111.60249 | 40777 ft | 543 kts | 37° |
| 2026-04-25 10:47 | 39.13859 | -111.53730 | 40773 ft | 543 kts | 37° |
| 2026-04-25 10:48 | 39.19478 | -111.47187 | 40769 ft | 544 kts | 37° |
| 2026-04-25 10:48 | 39.25083 | -111.40644 | 40770 ft | 544 kts | 37° |
| 2026-04-25 10:49 | 39.30688 | -111.34089 | 40769 ft | 543 kts | 37° |
| 2026-04-25 10:49 | 39.36290 | -111.27518 | 40766 ft | 543 kts | 37° |
| 2026-04-25 10:50 | 39.41886 | -111.20943 | 40763 ft | 544 kts | 37° |
| 2026-04-25 10:50 | 39.47449 | -111.14392 | 40769 ft | 544 kts | 37° |
| 2026-04-25 10:51 | 39.53041 | -111.07791 | 40795 ft | 544 kts | 37° |
| 2026-04-25 10:51 | 39.58627 | -111.01181 | 40817 ft | 544 kts | 37° |
| 2026-04-25 10:52 | 39.64209 | -110.94560 | 40838 ft | 544 kts | 37° |
| 2026-04-25 10:52 | 39.69789 | -110.87927 | 40847 ft | 544 kts | 37° |
| 2026-04-25 10:53 | 39.75370 | -110.81278 | 40840 ft | 544 kts | 37° |
| 2026-04-25 10:53 | 39.80944 | -110.74623 | 40821 ft | 544 kts | 38° |
| 2026-04-25 10:54 | 39.86522 | -110.67945 | 40797 ft | 544 kts | 38° |
| 2026-04-25 10:54 | 39.92058 | -110.61304 | 40767 ft | 544 kts | 38° |
| 2026-04-25 10:55 | 39.97623 | -110.54616 | 40749 ft | 544 kts | 38° |
| 2026-04-25 10:55 | 40.03186 | -110.47912 | 40747 ft | 544 kts | 38° |
| 2026-04-25 10:56 | 40.08737 | -110.41205 | 40743 ft | 544 kts | 38° |
| 2026-04-25 10:56 | 40.14280 | -110.34493 | 40744 ft | 544 kts | 38° |
| 2026-04-25 10:57 | 40.19830 | -110.27757 | 40747 ft | 544 kts | 38° |
| 2026-04-25 10:57 | 40.25337 | -110.21059 | 40746 ft | 543 kts | 38° |
| 2026-04-25 10:58 | 40.30871 | -110.14311 | 40745 ft | 543 kts | 38° |
| 2026-04-25 10:58 | 40.36401 | -110.07552 | 40749 ft | 543 kts | 38° |
| 2026-04-25 10:59 | 40.41916 | -110.00796 | 40747 ft | 543 kts | 38° |
| 2026-04-25 10:59 | 40.47427 | -109.94029 | 40769 ft | 542 kts | 39° |
| 2026-04-25 11:00 | 40.52937 | -109.87247 | 40796 ft | 542 kts | 39° |
| 2026-04-25 11:00 | 40.58440 | -109.80457 | 40801 ft | 542 kts | 39° |
| 2026-04-25 11:01 | 40.63928 | -109.73671 | 40816 ft | 542 kts | 39° |
| 2026-04-25 11:01 | 40.69422 | -109.66861 | 40813 ft | 541 kts | 39° |
| 2026-04-25 11:02 | 40.74873 | -109.60086 | 40818 ft | 541 kts | 39° |
| 2026-04-25 11:02 | 40.80354 | -109.53261 | 40822 ft | 541 kts | 39° |
| 2026-04-25 11:03 | 40.85831 | -109.46423 | 40827 ft | 541 kts | 39° |
| 2026-04-25 11:03 | 40.91294 | -109.39586 | 40846 ft | 541 kts | 39° |
| 2026-04-25 11:04 | 40.96755 | -109.32734 | 40856 ft | 541 kts | 39° |
| 2026-04-25 11:04 | 41.02211 | -109.25874 | 40860 ft | 541 kts | 39° |
| 2026-04-25 11:05 | 41.07666 | -109.18999 | 40868 ft | 541 kts | 39° |
| 2026-04-25 11:05 | 41.13078 | -109.12160 | 40873 ft | 541 kts | 39° |
| 2026-04-25 11:06 | 41.18527 | -109.05259 | 40872 ft | 541 kts | 40° |
| 2026-04-25 11:06 | 41.23974 | -108.98343 | 40879 ft | 541 kts | 40° |
| 2026-04-25 11:07 | 41.29416 | -108.91416 | 40891 ft | 541 kts | 40° |
| 2026-04-25 11:07 | 41.34809 | -108.84536 | 40907 ft | 541 kts | 40° |
| 2026-04-25 11:08 | 41.40233 | -108.77599 | 40918 ft | 540 kts | 40° |
| 2026-04-25 11:08 | 41.45651 | -108.70654 | 40918 ft | 540 kts | 40° |
| 2026-04-25 11:09 | 41.51061 | -108.63700 | 40915 ft | 540 kts | 40° |
| 2026-04-25 11:09 | 41.56478 | -108.56723 | 40916 ft | 540 kts | 40° |
| 2026-04-25 11:10 | 41.61886 | -108.49739 | 40916 ft | 540 kts | 40° |
| 2026-04-25 11:10 | 41.67246 | -108.42799 | 40943 ft | 540 kts | 40° |
| 2026-04-25 11:11 | 41.72647 | -108.35789 | 40955 ft | 540 kts | 40° |
| 2026-04-25 11:11 | 41.78033 | -108.28781 | 40960 ft | 540 kts | 40° |
| 2026-04-25 11:12 | 41.83409 | -108.21770 | 40967 ft | 539 kts | 40° |
| 2026-04-25 11:12 | 41.88785 | -108.14742 | 40965 ft | 539 kts | 40° |
| 2026-04-25 11:13 | 41.94159 | -108.07698 | 40976 ft | 539 kts | 40° |
| 2026-04-25 11:13 | 41.99493 | -108.00690 | 40975 ft | 539 kts | 40° |
| 2026-04-25 11:14 | 42.04955 | -107.93800 | 40977 ft | 537 kts | 38° |
| 2026-04-25 11:14 | 42.10578 | -107.87160 | 40991 ft | 537 kts | 37° |
| 2026-04-25 11:15 | 42.16202 | -107.80534 | 40994 ft | 537 kts | 37° |
| 2026-04-25 11:15 | 42.21797 | -107.73841 | 40999 ft | 537 kts | 38° |
| 2026-04-25 11:16 | 42.30115 | -107.63783 | 41002 ft | 537 kts | 38° |
| 2026-04-25 11:16 | 42.35676 | -107.57031 | 41012 ft | 537 kts | 38° |
| 2026-04-25 11:17 | 42.41234 | -107.50270 | 41023 ft | 537 kts | 38° |
| 2026-04-25 11:17 | 42.46787 | -107.43499 | 41027 ft | 537 kts | 38° |
| 2026-04-25 11:18 | 42.52346 | -107.36705 | 41028 ft | 537 kts | 38° |
| 2026-04-25 11:18 | 42.57891 | -107.29911 | 41036 ft | 537 kts | 38° |
| 2026-04-25 11:19 | 42.63396 | -107.23151 | 41039 ft | 537 kts | 38° |
| 2026-04-25 11:19 | 42.68934 | -107.16331 | 41041 ft | 537 kts | 38° |
| 2026-04-25 11:20 | 42.74430 | -107.09546 | 41042 ft | 537 kts | 39° |
| 2026-04-25 11:20 | 42.79953 | -107.02711 | 41044 ft | 537 kts | 39° |
| 2026-04-25 11:21 | 42.85472 | -106.95864 | 41044 ft | 536 kts | 39° |
| 2026-04-25 11:21 | 42.90823 | -106.89209 | 41037 ft | 536 kts | 39° |
| 2026-04-25 11:22 | 42.95400 | -106.83503 | 41031 ft | 536 kts | 39° |
| 2026-04-25 11:22 | 43.00909 | -106.76617 | 41029 ft | 536 kts | 39° |
| 2026-04-25 11:23 | 43.06405 | -106.69734 | 41027 ft | 536 kts | 39° |
| 2026-04-25 11:23 | 43.12781 | -106.61725 | 41031 ft | 535 kts | 39° |
| 2026-04-25 11:24 | 43.18263 | -106.54820 | 41038 ft | 535 kts | 39° |
| 2026-04-25 11:24 | 43.22851 | -106.49028 | 41050 ft | 535 kts | 39° |
| 2026-04-25 11:25 | 43.28288 | -106.42148 | 41055 ft | 535 kts | 39° |
| 2026-04-25 11:25 | 43.33751 | -106.35217 | 41063 ft | 535 kts | 39° |
| 2026-04-25 11:26 | 43.39212 | -106.28270 | 41065 ft | 535 kts | 39° |
| 2026-04-25 11:26 | 43.44665 | -106.21316 | 41068 ft | 535 kts | 40° |
| 2026-04-25 11:27 | 43.50115 | -106.14347 | 41071 ft | 535 kts | 40° |
| 2026-04-25 11:27 | 43.54641 | -106.08545 | 41072 ft | 535 kts | 40° |
| 2026-04-25 11:28 | 43.60971 | -106.00412 | 41079 ft | 534 kts | 40° |
| 2026-04-25 11:28 | 43.66409 | -105.93405 | 41080 ft | 534 kts | 40° |
| 2026-04-25 11:29 | 43.71842 | -105.86385 | 41087 ft | 534 kts | 40° |
| 2026-04-25 11:29 | 43.77262 | -105.79365 | 41092 ft | 534 kts | 40° |
| 2026-04-25 11:30 | 43.82679 | -105.72330 | 41099 ft | 533 kts | 40° |
| 2026-04-25 11:30 | 43.88087 | -105.65289 | 41098 ft | 533 kts | 40° |
| 2026-04-25 11:31 | 43.93482 | -105.58246 | 41114 ft | 533 kts | 40° |
| 2026-04-25 11:31 | 43.98857 | -105.51210 | 41120 ft | 533 kts | 40° |
| 2026-04-25 11:32 | 44.04248 | -105.44136 | 41102 ft | 533 kts | 40° |
| 2026-04-25 11:32 | 44.09633 | -105.37051 | 41101 ft | 533 kts | 41° |
| 2026-04-25 11:33 | 44.15009 | -105.29958 | 41092 ft | 533 kts | 41° |
| 2026-04-25 11:33 | 44.20383 | -105.22851 | 41096 ft | 532 kts | 41° |
| 2026-04-25 11:34 | 44.25717 | -105.15776 | 41109 ft | 532 kts | 41° |
| 2026-04-25 11:34 | 44.31075 | -105.08652 | 41117 ft | 532 kts | 41° |
| 2026-04-25 11:35 | 44.36435 | -105.01506 | 41129 ft | 532 kts | 41° |
| 2026-04-25 11:35 | 44.41793 | -104.94343 | 41135 ft | 532 kts | 41° |
| 2026-04-25 11:36 | 44.47145 | -104.87170 | 41134 ft | 532 kts | 41° |
| 2026-04-25 11:36 | 44.52492 | -104.79982 | 41144 ft | 533 kts | 41° |
| 2026-04-25 11:37 | 44.57835 | -104.72782 | 41134 ft | 533 kts | 41° |
| 2026-04-25 11:37 | 44.63177 | -104.65564 | 41141 ft | 533 kts | 42° |
| 2026-04-25 11:38 | 44.68516 | -104.58330 | 41138 ft | 533 kts | 42° |
| 2026-04-25 11:38 | 44.73848 | -104.51087 | 41135 ft | 533 kts | 42° |
| 2026-04-25 11:39 | 44.79186 | -104.43816 | 41135 ft | 533 kts | 42° |
| 2026-04-25 11:39 | 44.84476 | -104.36591 | 41131 ft | 534 kts | 42° |
| 2026-04-25 11:40 | 44.89803 | -104.29295 | 41133 ft | 534 kts | 42° |
| 2026-04-25 11:40 | 44.95157 | -104.21942 | 41128 ft | 533 kts | 42° |
| 2026-04-25 11:41 | 45.00436 | -104.14671 | 41129 ft | 533 kts | 42° |
| 2026-04-25 11:41 | 45.05748 | -104.07336 | 41123 ft | 533 kts | 42° |
| 2026-04-25 11:42 | 45.11050 | -103.99996 | 41122 ft | 533 kts | 43° |
| 2026-04-25 11:42 | 45.16348 | -103.92639 | 41117 ft | 533 kts | 43° |
| 2026-04-25 11:43 | 45.21642 | -103.85268 | 41116 ft | 533 kts | 43° |
| 2026-04-25 11:43 | 45.26932 | -103.77883 | 41113 ft | 533 kts | 43° |
| 2026-04-25 11:44 | 45.32214 | -103.70487 | 41113 ft | 533 kts | 43° |
| 2026-04-25 11:44 | 45.37461 | -103.63122 | 41114 ft | 533 kts | 43° |
| 2026-04-25 11:45 | 45.42748 | -103.55680 | 41111 ft | 533 kts | 43° |
| 2026-04-25 11:45 | 45.48014 | -103.48245 | 41111 ft | 533 kts | 43° |
| 2026-04-25 11:46 | 45.53279 | -103.40792 | 41112 ft | 533 kts | 43° |
| 2026-04-25 11:46 | 45.58541 | -103.33322 | 41108 ft | 533 kts | 43° |
| 2026-04-25 11:47 | 45.63808 | -103.25824 | 41102 ft | 534 kts | 43° |
| 2026-04-25 11:47 | 45.69059 | -103.18328 | 41095 ft | 534 kts | 43° |
| 2026-04-25 11:48 | 45.74316 | -103.10803 | 41102 ft | 534 kts | 44° |
| 2026-04-25 11:48 | 45.79527 | -103.03321 | 41088 ft | 534 kts | 44° |
| 2026-04-25 11:49 | 45.84775 | -102.95766 | 41072 ft | 534 kts | 44° |
| 2026-04-25 11:49 | 45.90012 | -102.88205 | 41052 ft | 534 kts | 44° |
| 2026-04-25 11:50 | 45.95249 | -102.80622 | 41035 ft | 534 kts | 44° |
| 2026-04-25 11:50 | 46.00478 | -102.73029 | 41023 ft | 535 kts | 44° |
| 2026-04-25 11:51 | 46.05716 | -102.65402 | 41027 ft | 535 kts | 44° |
| 2026-04-25 11:51 | 46.10939 | -102.57774 | 41033 ft | 535 kts | 44° |
| 2026-04-25 11:52 | 46.16165 | -102.50121 | 41044 ft | 535 kts | 44° |
| 2026-04-25 11:52 | 46.21383 | -102.42456 | 41058 ft | 535 kts | 44° |
| 2026-04-25 11:53 | 46.26594 | -102.34781 | 41075 ft | 535 kts | 44° |
| 2026-04-25 11:53 | 46.31806 | -102.27082 | 41071 ft | 535 kts | 44° |
| 2026-04-25 11:54 | 46.36976 | -102.19422 | 41070 ft | 536 kts | 44° |
| 2026-04-25 11:55 | 46.44785 | -102.07811 | 41069 ft | 536 kts | 44° |
| 2026-04-25 11:55 | 46.49981 | -102.00057 | 41065 ft | 536 kts | 45° |
| 2026-04-25 11:56 | 46.55309 | -101.92498 | 41064 ft | 535 kts | 41° |
| 2026-04-25 11:56 | 46.60805 | -101.85175 | 41064 ft | 535 kts | 41° |
| 2026-04-25 11:57 | 46.66289 | -101.77847 | 41061 ft | 535 kts | 41° |
| 2026-04-25 11:57 | 46.71744 | -101.70441 | 41058 ft | 536 kts | 42° |
| 2026-04-25 11:58 | 46.77176 | -101.62994 | 41055 ft | 536 kts | 42° |
| 2026-04-25 11:58 | 46.82595 | -101.55535 | 41049 ft | 535 kts | 42° |
| 2026-04-25 11:59 | 46.87983 | -101.48101 | 41052 ft | 536 kts | 42° |
| 2026-04-25 11:59 | 46.93397 | -101.40614 | 41051 ft | 535 kts | 42° |
| 2026-04-25 12:00 | 47.01506 | -101.29358 | 41051 ft | 535 kts | 43° |
| 2026-04-25 12:01 | 47.09603 | -101.18070 | 41050 ft | 535 kts | 43° |
| 2026-04-25 12:01 | 47.14992 | -101.10529 | 41050 ft | 535 kts | 43° |
| 2026-04-25 12:02 | 47.23035 | -100.99233 | 41048 ft | 535 kts | 43° |
| 2026-04-25 12:02 | 47.28413 | -100.91651 | 41042 ft | 535 kts | 43° |
| 2026-04-25 12:03 | 47.33784 | -100.84059 | 41039 ft | 535 kts | 43° |
| 2026-04-25 12:03 | 47.39151 | -100.76448 | 41037 ft | 535 kts | 43° |
| 2026-04-25 12:04 | 47.44513 | -100.68821 | 41039 ft | 535 kts | 43° |
| 2026-04-25 12:04 | 47.49835 | -100.61230 | 41039 ft | 535 kts | 43° |
| 2026-04-25 12:05 | 47.55182 | -100.53579 | 41036 ft | 535 kts | 43° |
| 2026-04-25 12:05 | 47.60525 | -100.45912 | 41033 ft | 534 kts | 44° |
| 2026-04-25 12:06 | 47.65870 | -100.38217 | 41031 ft | 534 kts | 44° |
| 2026-04-25 12:06 | 47.71198 | -100.30526 | 41026 ft | 534 kts | 44° |
| 2026-04-25 12:07 | 47.76508 | -100.22837 | 41031 ft | 534 kts | 44° |
| 2026-04-25 12:07 | 47.81830 | -100.15107 | 41028 ft | 534 kts | 44° |
| 2026-04-25 12:08 | 47.87138 | -100.07374 | 41031 ft | 534 kts | 44° |
| 2026-04-25 12:08 | 47.92411 | -99.99669 | 41029 ft | 534 kts | 44° |
| 2026-04-25 12:09 | 47.97713 | -99.91899 | 41029 ft | 534 kts | 44° |
| 2026-04-25 12:09 | 48.03016 | -99.84102 | 41032 ft | 534 kts | 44° |
| 2026-04-25 12:10 | 48.08311 | -99.76294 | 41030 ft | 534 kts | 44° |
| 2026-04-25 12:10 | 48.13595 | -99.68479 | 41029 ft | 534 kts | 45° |
| 2026-04-25 12:11 | 48.18871 | -99.60651 | 41037 ft | 534 kts | 45° |
| 2026-04-25 12:11 | 48.24109 | -99.52855 | 41045 ft | 534 kts | 45° |
| 2026-04-25 12:12 | 48.28529 | -99.46259 | 41044 ft | 534 kts | 45° |
| 2026-04-25 12:12 | 48.34641 | -99.37108 | 41043 ft | 534 kts | 45° |
| 2026-04-25 12:13 | 48.39899 | -99.29212 | 41044 ft | 534 kts | 45° |
| 2026-04-25 12:13 | 48.44257 | -99.22646 | 41045 ft | 533 kts | 45° |
| 2026-04-25 12:14 | 48.49500 | -99.14727 | 41038 ft | 533 kts | 45° |
| 2026-04-25 12:14 | 48.54740 | -99.06786 | 41040 ft | 533 kts | 45° |
| 2026-04-25 12:15 | 48.59971 | -98.98835 | 41037 ft | 533 kts | 45° |
| 2026-04-25 12:15 | 48.65194 | -98.90872 | 41041 ft | 533 kts | 45° |
| 2026-04-25 12:16 | 48.70410 | -98.82894 | 41038 ft | 533 kts | 46° |
| 2026-04-25 12:16 | 48.75620 | -98.74900 | 41036 ft | 533 kts | 46° |
| 2026-04-25 12:17 | 48.80794 | -98.66937 | 41034 ft | 533 kts | 46° |
| 2026-04-25 12:17 | 48.86001 | -98.58898 | 41033 ft | 533 kts | 46° |
| 2026-04-25 12:18 | 48.91189 | -98.50862 | 41030 ft | 533 kts | 46° |
| 2026-04-25 12:18 | 48.96376 | -98.42803 | 41029 ft | 533 kts | 46° |
| 2026-04-25 12:19 | 49.04145 | -98.30684 | 41026 ft | 532 kts | 46° |
| 2026-04-25 12:20 | 49.09310 | -98.22595 | 41028 ft | 532 kts | 46° |
| 2026-04-25 12:20 | 49.14475 | -98.14480 | 41023 ft | 532 kts | 46° |
| 2026-04-25 12:21 | 49.19601 | -98.06402 | 41024 ft | 532 kts | 46° |
| 2026-04-25 12:21 | 49.24745 | -97.98253 | 41020 ft | 532 kts | 48° |
| 2026-04-25 12:22 | 49.29519 | -97.89595 | 41025 ft | 531 kts | 52° |
| 2026-04-25 12:22 | 49.34054 | -97.80659 | 41027 ft | 531 kts | 53° |
| 2026-04-25 12:23 | 49.38574 | -97.71799 | 41022 ft | 531 kts | 53° |
| 2026-04-25 12:23 | 49.43177 | -97.62939 | 41025 ft | 531 kts | 52° |
| 2026-04-25 12:24 | 49.47804 | -97.54087 | 41026 ft | 531 kts | 52° |
| 2026-04-25 12:24 | 49.52424 | -97.45231 | 41028 ft | 531 kts | 52° |
| 2026-04-25 12:25 | 49.57035 | -97.36354 | 41023 ft | 530 kts | 52° |
| 2026-04-25 12:25 | 49.61671 | -97.27493 | 41022 ft | 531 kts | 52° |
| 2026-04-25 12:26 | 49.66363 | -97.18711 | 41014 ft | 530 kts | 52° |
| 2026-04-25 12:26 | 49.71056 | -97.09914 | 41013 ft | 530 kts | 52° |
| 2026-04-25 12:27 | 49.75677 | -97.01192 | 41013 ft | 530 kts | 52° |
| 2026-04-25 12:27 | 49.80336 | -96.92350 | 41011 ft | 530 kts | 52° |
| 2026-04-25 12:28 | 49.84957 | -96.83548 | 41014 ft | 530 kts | 52° |
| 2026-04-25 12:28 | 49.89606 | -96.74663 | 41036 ft | 530 kts | 52° |
| 2026-04-25 12:29 | 49.94240 | -96.65777 | 41025 ft | 529 kts | 52° |
| 2026-04-25 12:29 | 49.98864 | -96.56883 | 41037 ft | 529 kts | 52° |
| 2026-04-25 12:30 | 50.03478 | -96.47975 | 41039 ft | 528 kts | 52° |
| 2026-04-25 12:30 | 50.08079 | -96.39064 | 41035 ft | 528 kts | 52° |
| 2026-04-25 12:31 | 50.12670 | -96.30141 | 41035 ft | 527 kts | 52° |
| 2026-04-25 12:31 | 50.17219 | -96.21269 | 41039 ft | 527 kts | 53° |
| 2026-04-25 12:32 | 50.21788 | -96.12329 | 41037 ft | 526 kts | 53° |
| 2026-04-25 12:32 | 50.26341 | -96.03388 | 41040 ft | 526 kts | 53° |
| 2026-04-25 12:33 | 50.30893 | -95.94420 | 41042 ft | 526 kts | 53° |